createdAt,value
2022-08-22T00:00:06.326Z,0.00
2022-08-22T00:01:06.336Z,0.00
2022-08-22T00:02:06.385Z,0.00
2022-08-22T00:02:46.389Z,0.00
2022-08-22T00:02:47.465Z,48.00
2022-08-22T00:02:54.938Z,0.00
2022-08-22T00:02:54.996Z,0.00
2022-08-22T00:02:55.136Z,0.00
2022-08-22T00:02:55.613Z,0.00
2022-08-22T00:02:57.677Z,0.00
2022-08-22T00:03:00.128Z,0.00
2022-08-22T00:03:01.452Z,0.00
2022-08-22T00:03:02.257Z,0.00
2022-08-22T00:03:04.340Z,0.00
2022-08-22T00:03:06.868Z,0.00
2022-08-22T00:03:09.241Z,0.00
2022-08-22T00:03:18.506Z,0.00
2022-08-22T00:04:07.296Z,0.00
2022-08-22T00:05:06.284Z,0.00
2022-08-22T00:06:06.265Z,0.00
2022-08-22T00:07:06.267Z,0.00
2022-08-22T00:08:06.278Z,0.00
2022-08-22T00:09:06.241Z,0.00
2022-08-22T00:10:06.237Z,0.00
2022-08-22T00:11:06.229Z,0.00
2022-08-22T00:12:06.190Z,0.00
2022-08-22T00:13:06.218Z,0.00
2022-08-22T00:14:06.184Z,0.00
2022-08-22T00:15:06.168Z,0.00
2022-08-22T00:16:06.159Z,0.00
2022-08-22T00:17:06.159Z,0.00
2022-08-22T00:18:06.139Z,0.00
2022-08-22T00:19:06.142Z,0.00
2022-08-22T00:20:06.109Z,0.00
2022-08-22T00:21:06.102Z,0.00
2022-08-22T00:22:06.089Z,0.00
2022-08-22T00:23:06.463Z,0.00
2022-08-22T00:24:06.062Z,0.00
2022-08-22T00:25:06.060Z,0.00
2022-08-22T00:26:06.052Z,0.00
2022-08-22T00:27:06.024Z,0.00
2022-08-22T00:28:06.076Z,0.00
2022-08-22T00:29:06.001Z,0.00
2022-08-22T00:30:06.001Z,0.00
2022-08-22T00:31:05.981Z,0.00
2022-08-22T00:32:05.983Z,0.00
2022-08-22T00:33:05.984Z,0.00
2022-08-22T00:34:05.950Z,0.00
2022-08-22T00:35:06.521Z,0.00
2022-08-22T00:36:05.924Z,0.00
2022-08-22T00:37:05.912Z,0.00
2022-08-22T00:38:05.924Z,0.00
2022-08-22T00:39:05.893Z,0.00
2022-08-22T00:40:05.899Z,0.00
2022-08-22T00:41:05.865Z,0.00
2022-08-22T00:42:05.864Z,0.00
2022-08-22T00:43:05.846Z,0.00
2022-08-22T00:44:05.842Z,0.00
2022-08-22T00:45:05.915Z,0.00
2022-08-22T00:46:05.800Z,0.00
2022-08-22T00:47:05.809Z,0.00
2022-08-22T00:48:05.805Z,0.00
2022-08-22T00:49:05.776Z,0.00
2022-08-22T00:50:05.770Z,0.00
2022-08-22T00:51:05.776Z,0.00
2022-08-22T00:52:05.735Z,0.00
2022-08-22T00:53:05.749Z,0.00
2022-08-22T00:54:06.710Z,0.00
2022-08-22T00:55:05.707Z,0.00
2022-08-22T00:56:05.698Z,0.00
2022-08-22T00:57:05.688Z,0.00
2022-08-22T00:58:05.685Z,0.00
2022-08-22T00:59:12.018Z,0.00
2022-08-22T01:00:06.649Z,0.00
2022-08-22T01:01:05.683Z,0.00
2022-08-22T01:02:06.039Z,0.00
2022-08-22T01:03:05.648Z,0.00
2022-08-22T01:04:05.600Z,0.00
2022-08-22T01:05:05.607Z,0.00
2022-08-22T01:06:05.579Z,0.00
2022-08-22T01:07:05.584Z,0.00
2022-08-22T01:08:05.565Z,0.00
2022-08-22T01:09:05.551Z,0.00
2022-08-22T01:10:05.542Z,0.00
2022-08-22T01:11:05.533Z,0.00
2022-08-22T01:12:05.510Z,0.00
2022-08-22T01:13:05.681Z,0.00
2022-08-22T01:14:05.480Z,0.00
2022-08-22T01:15:05.489Z,0.00
2022-08-22T01:16:05.471Z,0.00
2022-08-22T01:17:05.441Z,0.00
2022-08-22T01:18:05.464Z,0.00
2022-08-22T01:19:05.423Z,0.00
2022-08-22T01:20:05.422Z,0.00
2022-08-22T01:21:05.412Z,0.00
2022-08-22T01:22:05.403Z,0.00
2022-08-22T01:23:05.391Z,0.00
2022-08-22T01:24:05.384Z,0.00
2022-08-22T01:25:05.365Z,0.00
2022-08-22T01:26:05.343Z,0.00
2022-08-22T01:27:05.355Z,0.00
2022-08-22T01:28:05.354Z,0.00
2022-08-22T01:29:05.901Z,0.00
2022-08-22T01:30:06.305Z,0.00
2022-08-22T01:31:05.292Z,0.00
2022-08-22T01:32:05.289Z,0.00
2022-08-22T01:33:05.277Z,0.00
2022-08-22T01:34:05.273Z,0.00
2022-08-22T01:35:06.227Z,0.00
2022-08-22T01:36:05.253Z,0.00
2022-08-22T01:37:05.244Z,0.00
2022-08-22T01:38:05.215Z,0.00
2022-08-22T01:39:05.199Z,0.00
2022-08-22T01:40:05.234Z,0.00
2022-08-22T01:41:05.158Z,0.00
2022-08-22T01:42:05.158Z,0.00
2022-08-22T01:43:05.160Z,0.00
2022-08-22T01:44:05.127Z,0.00
2022-08-22T01:45:05.106Z,0.00
2022-08-22T01:46:05.098Z,0.00
2022-08-22T01:47:05.097Z,0.00
2022-08-22T01:48:05.087Z,0.00
2022-08-22T01:49:05.084Z,0.00
2022-08-22T01:50:05.050Z,0.00
2022-08-22T01:51:05.051Z,0.00
2022-08-22T01:52:05.035Z,0.00
2022-08-22T01:53:05.031Z,0.00
2022-08-22T01:54:04.998Z,0.00
2022-08-22T01:55:05.003Z,0.00
2022-08-22T01:56:04.977Z,0.00
2022-08-22T01:57:04.971Z,0.00
2022-08-22T01:58:04.980Z,0.00
2022-08-22T01:59:04.952Z,0.00
2022-08-22T02:00:05.921Z,0.00
2022-08-22T02:01:04.950Z,0.00
2022-08-22T02:02:04.912Z,0.00
2022-08-22T02:03:04.910Z,0.00
2022-08-22T02:04:04.891Z,0.00
2022-08-22T02:05:04.873Z,0.00
2022-08-22T02:06:04.855Z,0.00
2022-08-22T02:07:04.892Z,0.00
2022-08-22T02:08:04.866Z,0.00
2022-08-22T02:09:04.813Z,0.00
2022-08-22T02:10:04.812Z,0.00
2022-08-22T02:11:04.816Z,0.00
2022-08-22T02:12:04.773Z,0.00
2022-08-22T02:13:05.816Z,0.00
2022-08-22T02:14:04.764Z,0.00
2022-08-22T02:15:04.752Z,0.00
2022-08-22T02:16:04.735Z,0.00
2022-08-22T02:17:04.736Z,0.00
2022-08-22T02:18:04.735Z,0.00
2022-08-22T02:19:04.695Z,0.00
2022-08-22T02:20:04.703Z,0.00
2022-08-22T02:21:04.674Z,0.00
2022-08-22T02:22:04.669Z,0.00
2022-08-22T02:23:04.682Z,0.00
2022-08-22T02:24:04.645Z,0.00
2022-08-22T02:25:08.952Z,0.00
2022-08-22T02:26:04.658Z,0.00
2022-08-22T02:27:04.596Z,0.00
2022-08-22T02:28:04.604Z,0.00
2022-08-22T02:29:04.590Z,0.00
2022-08-22T02:30:04.575Z,0.00
2022-08-22T02:31:04.547Z,0.00
2022-08-22T02:32:04.569Z,0.00
2022-08-22T02:33:04.537Z,0.00
2022-08-22T02:34:04.521Z,0.00
2022-08-22T02:35:04.521Z,0.00
2022-08-22T02:36:04.489Z,0.00
2022-08-22T02:37:04.479Z,0.00
2022-08-22T02:38:04.502Z,0.00
2022-08-22T02:39:04.464Z,0.00
2022-08-22T02:40:04.537Z,0.00
2022-08-22T02:41:04.441Z,0.00
2022-08-22T02:42:04.429Z,0.00
2022-08-22T02:43:04.419Z,0.00
2022-08-22T02:44:04.435Z,0.00
2022-08-22T02:45:04.390Z,0.00
2022-08-22T02:46:04.390Z,0.00
2022-08-22T02:47:04.399Z,0.00
2022-08-22T02:48:04.370Z,0.00
2022-08-22T02:49:04.341Z,0.00
2022-08-22T02:50:04.557Z,0.00
2022-08-22T02:51:04.319Z,0.00
2022-08-22T02:52:04.302Z,0.00
2022-08-22T02:53:04.312Z,0.00
2022-08-22T02:54:04.284Z,0.00
2022-08-22T02:55:04.266Z,0.00
2022-08-22T02:56:04.252Z,0.00
2022-08-22T02:57:04.263Z,0.00
2022-08-22T02:58:04.243Z,0.00
2022-08-22T02:59:04.212Z,0.00
2022-08-22T03:00:04.213Z,0.00
2022-08-22T03:01:04.231Z,0.00
2022-08-22T03:02:04.211Z,0.00
2022-08-22T03:03:04.207Z,0.00
2022-08-22T03:04:04.154Z,0.00
2022-08-22T03:05:04.144Z,0.00
2022-08-22T03:06:04.143Z,0.00
2022-08-22T03:07:04.148Z,0.00
2022-08-22T03:08:04.124Z,0.00
2022-08-22T03:09:04.104Z,0.00
2022-08-22T03:10:04.102Z,0.00
2022-08-22T03:11:04.089Z,0.00
2022-08-22T03:12:04.075Z,0.00
2022-08-22T03:13:04.076Z,0.00
2022-08-22T03:14:04.050Z,0.00
2022-08-22T03:15:04.036Z,0.00
2022-08-22T03:16:04.029Z,0.00
2022-08-22T03:17:04.007Z,0.00
2022-08-22T03:18:04.043Z,0.00
2022-08-22T03:19:03.991Z,0.00
2022-08-22T03:20:03.987Z,0.00
2022-08-22T03:21:03.975Z,0.00
2022-08-22T03:22:03.960Z,0.00
2022-08-22T03:23:03.965Z,0.00
2022-08-22T03:24:03.940Z,0.00
2022-08-22T03:25:03.933Z,0.00
2022-08-22T03:26:07.396Z,0.00
2022-08-22T03:27:03.899Z,0.00
2022-08-22T03:28:03.928Z,0.00
2022-08-22T03:29:03.879Z,0.00
2022-08-22T03:30:03.869Z,0.00
2022-08-22T03:31:03.868Z,0.00
2022-08-22T03:32:03.851Z,0.00
2022-08-22T03:33:03.839Z,0.00
2022-08-22T03:34:03.832Z,0.00
2022-08-22T03:35:03.814Z,0.00
2022-08-22T03:36:03.812Z,0.00
2022-08-22T03:37:03.791Z,0.00
2022-08-22T03:38:03.804Z,0.00
2022-08-22T03:39:03.761Z,0.00
2022-08-22T03:40:04.875Z,0.00
2022-08-22T03:41:03.746Z,0.00
2022-08-22T03:42:03.732Z,0.00
2022-08-22T03:43:03.741Z,0.00
2022-08-22T03:44:03.713Z,0.00
2022-08-22T03:45:03.709Z,0.00
2022-08-22T03:46:03.692Z,0.00
2022-08-22T03:47:03.675Z,0.00
2022-08-22T03:48:03.682Z,0.00
2022-08-22T03:49:03.662Z,0.00
2022-08-22T03:50:03.642Z,0.00
2022-08-22T03:51:03.625Z,0.00
2022-08-22T03:52:03.623Z,0.00
2022-08-22T03:53:03.614Z,0.00
2022-08-22T03:54:03.593Z,0.00
2022-08-22T03:55:03.588Z,0.00
2022-08-22T03:56:03.575Z,0.00
2022-08-22T03:57:03.554Z,0.00
2022-08-22T03:58:03.586Z,0.00
2022-08-22T03:59:03.536Z,4.00
2022-08-22T04:00:04.527Z,4.00
2022-08-22T04:01:03.636Z,4.00
2022-08-22T04:02:03.507Z,0.00
2022-08-22T04:03:04.522Z,4.00
2022-08-22T04:04:03.487Z,4.00
2022-08-22T04:05:03.477Z,8.00
2022-08-22T04:06:03.465Z,4.00
2022-08-22T04:07:05.501Z,4.00
2022-08-22T04:08:04.457Z,8.00
2022-08-22T04:09:03.423Z,8.00
2022-08-22T04:10:03.430Z,12.00
2022-08-22T04:11:03.453Z,12.00
2022-08-22T04:12:03.397Z,16.00
2022-08-22T04:13:03.398Z,16.00
2022-08-22T04:14:03.378Z,20.00
2022-08-22T04:15:03.369Z,24.00
2022-08-22T04:16:03.352Z,28.00
2022-08-22T04:17:03.359Z,32.00
2022-08-22T04:18:03.351Z,36.00
2022-08-22T04:19:03.326Z,44.00
2022-08-22T04:20:03.312Z,48.00
2022-08-22T04:21:03.288Z,56.00
2022-08-22T04:22:03.284Z,68.00
2022-08-22T04:23:03.294Z,76.00
2022-08-22T04:24:03.262Z,84.00
2022-08-22T04:25:07.598Z,96.00
2022-08-22T04:26:12.019Z,108.00
2022-08-22T04:27:04.250Z,120.00
2022-08-22T04:28:03.211Z,136.00
2022-08-22T04:29:03.222Z,148.00
2022-08-22T04:30:03.202Z,164.00
2022-08-22T04:31:03.181Z,180.00
2022-08-22T04:32:03.194Z,196.00
2022-08-22T04:33:03.175Z,212.00
2022-08-22T04:34:03.169Z,232.00
2022-08-22T04:35:03.151Z,248.00
2022-08-22T04:36:03.136Z,268.00
2022-08-22T04:37:03.133Z,288.00
2022-08-22T04:38:03.127Z,308.00
2022-08-22T04:39:03.104Z,332.00
2022-08-22T04:40:03.142Z,356.00
2022-08-22T04:41:04.642Z,376.00
2022-08-22T04:42:28.776Z,404.00
2022-08-22T04:43:04.088Z,424.00
2022-08-22T04:44:03.046Z,448.00
2022-08-22T04:45:03.046Z,476.00
2022-08-22T04:46:03.046Z,496.00
2022-08-22T04:47:03.018Z,524.00
2022-08-22T04:48:03.037Z,552.00
2022-08-22T04:49:02.976Z,580.00
2022-08-22T04:50:02.975Z,604.00
2022-08-22T04:51:02.993Z,636.00
2022-08-22T04:52:02.963Z,660.00
2022-08-22T04:53:02.954Z,688.00
2022-08-22T04:54:02.953Z,712.00
2022-08-22T04:55:02.974Z,736.00
2022-08-22T04:56:07.110Z,764.00
2022-08-22T04:57:02.897Z,784.00
2022-08-22T04:58:02.900Z,808.00
2022-08-22T04:59:03.102Z,828.00
2022-08-22T05:00:02.887Z,848.00
2022-08-22T05:01:02.856Z,872.00
2022-08-22T05:02:02.889Z,896.00
2022-08-22T05:03:02.873Z,920.00
2022-08-22T05:04:02.826Z,944.00
2022-08-22T05:05:02.805Z,964.00
2022-08-22T05:06:02.808Z,980.00
2022-08-22T05:07:02.787Z,1000.00
2022-08-22T05:08:02.815Z,1020.00
2022-08-22T05:09:02.776Z,1040.00
2022-08-22T05:10:09.271Z,1076.00
2022-08-22T05:11:03.739Z,1096.00
2022-08-22T05:12:02.742Z,1116.00
2022-08-22T05:13:02.763Z,1144.00
2022-08-22T05:14:02.709Z,1168.00
2022-08-22T05:15:02.698Z,1184.00
2022-08-22T05:16:02.680Z,1204.00
2022-08-22T05:17:02.693Z,1228.00
2022-08-22T05:18:02.660Z,1264.00
2022-08-22T05:19:02.660Z,1296.00
2022-08-22T05:20:02.642Z,1316.00
2022-08-22T05:21:02.640Z,1348.00
2022-08-22T05:22:02.657Z,1380.00
2022-08-22T05:23:02.613Z,1400.00
2022-08-22T05:24:02.621Z,1420.00
2022-08-22T05:25:02.601Z,1436.00
2022-08-22T05:26:02.575Z,1452.00
2022-08-22T05:27:02.582Z,1476.00
2022-08-22T05:28:02.582Z,1492.00
2022-08-22T05:29:02.542Z,1512.00
2022-08-22T05:30:02.543Z,1528.00
2022-08-22T05:31:02.568Z,1548.00
2022-08-22T05:32:02.520Z,1564.00
2022-08-22T05:33:02.501Z,1584.00
2022-08-22T05:34:02.493Z,1600.00
2022-08-22T05:35:02.490Z,1616.00
2022-08-22T05:36:02.462Z,1628.00
2022-08-22T05:37:02.483Z,1648.00
2022-08-22T05:38:02.433Z,1668.00
2022-08-22T05:39:02.439Z,1692.00
2022-08-22T05:40:02.453Z,1708.00
2022-08-22T05:41:02.414Z,1728.00
2022-08-22T05:42:02.414Z,1744.00
2022-08-22T05:43:02.418Z,1764.00
2022-08-22T05:44:02.375Z,1780.00
2022-08-22T05:45:02.378Z,1796.00
2022-08-22T05:46:02.368Z,1812.00
2022-08-22T05:47:02.370Z,1852.00
2022-08-22T05:48:02.409Z,1840.00
2022-08-22T05:49:02.335Z,1856.00
2022-08-22T05:50:02.306Z,1864.00
2022-08-22T05:51:02.315Z,1892.00
2022-08-22T05:52:02.307Z,1900.00
2022-08-22T05:53:02.297Z,1916.00
2022-08-22T05:54:02.266Z,1956.00
2022-08-22T05:55:02.256Z,1952.00
2022-08-22T05:56:02.256Z,1964.00
2022-08-22T05:57:06.063Z,1988.00
2022-08-22T05:58:03.227Z,1996.00
2022-08-22T05:59:02.208Z,2004.00
2022-08-22T06:00:02.202Z,2020.00
2022-08-22T06:01:02.189Z,2032.00
2022-08-22T06:02:02.288Z,2040.00
2022-08-22T06:03:02.148Z,2076.00
2022-08-22T06:04:02.162Z,2068.00
2022-08-22T06:05:02.218Z,2176.00
2022-08-22T06:06:02.119Z,2100.00
2022-08-22T06:07:02.130Z,2108.00
2022-08-22T06:08:02.117Z,2120.00
2022-08-22T06:09:02.081Z,2136.00
2022-08-22T06:10:02.088Z,2152.00
2022-08-22T06:11:02.071Z,2168.00
2022-08-22T06:12:02.052Z,2184.00
2022-08-22T06:13:02.071Z,2220.00
2022-08-22T06:14:02.041Z,2216.00
2022-08-22T06:15:02.011Z,2224.00
2022-08-22T06:16:02.037Z,2244.00
2022-08-22T06:17:05.854Z,2280.00
2022-08-22T06:18:01.996Z,2276.00
2022-08-22T06:19:01.974Z,2288.00
2022-08-22T06:20:01.963Z,2292.00
2022-08-22T06:21:01.944Z,2316.00
2022-08-22T06:22:01.980Z,2312.00
2022-08-22T06:23:01.973Z,2324.00
2022-08-22T06:24:01.902Z,2340.00
2022-08-22T06:25:01.903Z,2344.00
2022-08-22T06:26:01.885Z,2368.00
2022-08-22T06:27:01.885Z,2372.00
2022-08-22T06:28:01.898Z,2460.00
2022-08-22T06:29:01.862Z,2404.00
2022-08-22T06:30:02.656Z,2392.00
2022-08-22T06:31:02.018Z,2400.00
2022-08-22T06:32:02.417Z,2400.00
2022-08-22T06:33:02.364Z,2408.00
2022-08-22T06:34:02.160Z,2472.00
2022-08-22T06:35:01.774Z,2472.00
2022-08-22T06:36:01.759Z,2444.00
2022-08-22T06:37:01.769Z,2484.00
2022-08-22T06:38:01.747Z,2436.00
2022-08-22T06:39:01.727Z,2476.00
2022-08-22T06:40:02.692Z,2484.00
2022-08-22T06:41:01.707Z,2492.00
2022-08-22T06:42:01.816Z,2508.00
2022-08-22T06:43:01.716Z,2516.00
2022-08-22T06:44:01.666Z,2536.00
2022-08-22T06:45:01.669Z,2544.00
2022-08-22T06:46:01.676Z,2556.00
2022-08-22T06:47:01.634Z,2568.00
2022-08-22T06:48:01.716Z,2584.00
2022-08-22T06:49:01.618Z,2596.00
2022-08-22T06:50:01.598Z,2660.00
2022-08-22T06:51:01.590Z,2624.00
2022-08-22T06:52:01.600Z,2624.00
2022-08-22T06:53:01.558Z,2640.00
2022-08-22T06:54:01.550Z,2652.00
2022-08-22T06:55:01.565Z,2640.00
2022-08-22T06:56:02.604Z,2640.00
2022-08-22T06:57:01.530Z,2652.00
2022-08-22T06:58:01.532Z,2660.00
2022-08-22T06:59:01.490Z,2676.00
2022-08-22T07:00:01.487Z,2668.00
2022-08-22T07:01:11.294Z,2684.00
2022-08-22T07:02:02.501Z,2692.00
2022-08-22T07:03:01.969Z,2712.00
2022-08-22T07:04:01.453Z,2712.00
2022-08-22T07:05:02.239Z,2712.00
2022-08-22T07:06:01.455Z,2732.00
2022-08-22T07:07:02.578Z,2736.00
2022-08-22T07:08:01.404Z,2740.00
2022-08-22T07:09:05.634Z,2752.00
2022-08-22T07:10:02.372Z,2756.00
2022-08-22T07:11:01.377Z,2784.00
2022-08-22T07:12:01.361Z,2764.00
2022-08-22T07:13:02.414Z,2764.00
2022-08-22T07:14:01.323Z,2768.00
2022-08-22T07:15:01.304Z,2748.00
2022-08-22T07:16:01.306Z,2696.00
2022-08-22T07:17:01.304Z,2524.00
2022-08-22T07:18:01.277Z,2472.00
2022-08-22T07:19:01.276Z,2536.00
2022-08-22T07:20:01.256Z,2580.00
2022-08-22T07:21:02.248Z,2572.00
2022-08-22T07:22:02.155Z,2604.00
2022-08-22T07:23:02.055Z,2580.00
2022-08-22T07:24:01.207Z,2488.00
2022-08-22T07:25:01.487Z,2452.00
2022-08-22T07:26:01.645Z,2532.00
2022-08-22T07:27:02.140Z,2652.00
2022-08-22T07:28:03.875Z,2560.00
2022-08-22T07:29:01.877Z,2776.00
2022-08-22T07:30:01.450Z,2764.00
2022-08-22T07:31:02.320Z,2980.00
2022-08-22T07:32:01.118Z,2996.00
2022-08-22T07:33:20.986Z,3004.00
2022-08-22T07:34:02.089Z,3052.00
2022-08-22T07:35:01.080Z,3072.00
2022-08-22T07:36:01.058Z,3112.00
2022-08-22T07:37:02.241Z,3112.00
2022-08-22T07:38:01.338Z,3116.00
2022-08-22T07:39:02.058Z,3144.00
2022-08-22T07:40:01.045Z,3100.00
2022-08-22T07:41:01.011Z,3120.00
2022-08-22T07:42:00.991Z,3108.00
2022-08-22T07:43:02.189Z,3128.00
2022-08-22T07:44:02.089Z,3104.00
2022-08-22T07:45:01.451Z,3104.00
2022-08-22T07:46:00.986Z,3144.00
2022-08-22T07:47:00.944Z,3152.00
2022-08-22T07:48:01.154Z,3172.00
2022-08-22T07:49:09.828Z,3192.00
2022-08-22T07:50:01.924Z,3212.00
2022-08-22T07:51:00.894Z,3228.00
2022-08-22T07:52:00.915Z,3252.00
2022-08-22T07:53:00.896Z,3272.00
2022-08-22T07:54:01.116Z,3300.00
2022-08-22T07:55:00.874Z,3308.00
2022-08-22T07:56:01.876Z,3316.00
2022-08-22T07:57:00.858Z,3328.00
2022-08-22T07:58:01.773Z,3336.00
2022-08-22T07:59:00.847Z,3360.00
2022-08-22T08:00:00.805Z,3372.00
2022-08-22T08:01:00.847Z,3384.00
2022-08-22T08:02:00.794Z,3400.00
2022-08-22T08:03:00.774Z,3440.00
2022-08-22T08:04:00.775Z,3460.00
2022-08-22T08:05:00.751Z,3504.00
2022-08-22T08:06:01.008Z,3568.00
2022-08-22T08:07:01.116Z,3644.00
2022-08-22T08:08:01.836Z,3728.00
2022-08-22T08:09:01.738Z,3812.00
2022-08-22T08:10:01.646Z,3792.00
2022-08-22T08:11:01.216Z,3632.00
2022-08-22T08:12:00.659Z,3620.00
2022-08-22T08:13:02.548Z,3728.00
2022-08-22T08:14:00.649Z,3804.00
2022-08-22T08:15:00.628Z,3888.00
2022-08-22T08:16:00.635Z,3992.00
2022-08-22T08:17:01.488Z,4096.00
2022-08-22T08:18:01.442Z,4160.00
2022-08-22T08:19:01.670Z,4220.00
2022-08-22T08:20:04.541Z,4284.00
2022-08-22T08:21:01.610Z,4368.00
2022-08-22T08:22:01.513Z,4376.00
2022-08-22T08:23:01.020Z,4580.00
2022-08-22T08:24:00.521Z,4560.00
2022-08-22T08:25:00.809Z,4664.00
2022-08-22T08:26:01.644Z,4668.00
2022-08-22T08:27:00.695Z,4876.00
2022-08-22T08:28:01.588Z,5012.00
2022-08-22T08:29:01.352Z,5056.00
2022-08-22T08:30:01.262Z,5448.00
2022-08-22T08:31:01.673Z,5148.00
2022-08-22T08:32:01.582Z,5312.00
2022-08-22T08:33:24.257Z,5280.00
2022-08-22T08:34:02.413Z,5436.00
2022-08-22T08:35:01.283Z,5612.00
2022-08-22T08:36:03.014Z,5664.00
2022-08-22T08:37:01.345Z,5708.00
2022-08-22T08:38:00.680Z,5772.00
2022-08-22T08:39:04.243Z,5796.00
2022-08-22T08:40:00.501Z,5960.00
2022-08-22T08:41:00.334Z,6076.00
2022-08-22T08:42:00.339Z,6128.00
2022-08-22T08:43:00.364Z,6252.00
2022-08-22T08:44:00.358Z,6492.00
2022-08-22T08:45:00.346Z,6412.00
2022-08-22T08:46:00.350Z,6352.00
2022-08-22T08:47:00.274Z,6224.00
2022-08-22T08:48:00.603Z,6192.00
2022-08-22T08:49:00.278Z,6104.00
2022-08-22T08:50:00.553Z,5780.00
2022-08-22T08:51:02.198Z,5656.00
2022-08-22T08:52:00.347Z,5520.00
2022-08-22T08:53:00.226Z,5560.00
2022-08-22T08:54:00.318Z,5388.00
2022-08-22T08:55:00.358Z,5236.00
2022-08-22T08:56:00.530Z,5296.00
2022-08-22T08:57:00.319Z,5276.00
2022-08-22T08:58:05.141Z,5256.00
2022-08-22T08:59:02.058Z,5284.00
2022-08-22T09:00:00.328Z,5048.00
2022-08-22T09:01:00.388Z,4920.00
2022-08-22T09:02:00.096Z,4852.00
2022-08-22T09:03:00.349Z,4896.00
2022-08-22T09:04:02.090Z,4904.00
2022-08-22T09:05:04.313Z,4908.00
2022-08-22T09:06:04.220Z,4932.00
2022-08-22T09:07:01.459Z,4860.00
2022-08-22T09:08:04.284Z,4844.00
2022-08-22T09:09:03.933Z,5000.00
2022-08-22T09:10:04.089Z,5092.00
2022-08-22T09:11:04.252Z,5284.00
2022-08-22T09:12:01.803Z,5448.00
2022-08-22T09:13:11.932Z,5468.00
2022-08-22T09:14:02.162Z,5572.00
2022-08-22T09:15:00.353Z,5620.00
2022-08-22T09:16:04.814Z,5676.00
2022-08-22T09:17:00.060Z,5820.00
2022-08-22T09:19:11.267Z,6064.00
2022-08-22T09:20:15.507Z,6296.00
2022-08-22T09:21:16.171Z,6544.00
2022-08-22T09:22:14.214Z,6760.00
2022-08-22T09:23:12.240Z,6916.00
2022-08-22T09:24:11.132Z,7156.00
2022-08-22T09:25:11.200Z,7252.00
2022-08-22T09:26:11.090Z,7336.00
2022-08-22T09:27:11.129Z,7408.00
2022-08-22T09:28:11.160Z,7464.00
2022-08-22T09:29:11.090Z,7748.00
2022-08-22T09:30:11.785Z,7760.00
2022-08-22T09:31:21.817Z,7680.00
2022-08-22T09:32:13.143Z,7200.00
2022-08-22T09:33:10.994Z,7312.00
2022-08-22T09:34:11.010Z,7188.00
2022-08-22T09:35:10.984Z,7228.00
2022-08-22T09:36:12.202Z,6936.00
2022-08-22T09:37:14.195Z,6260.00
2022-08-22T09:38:10.954Z,6388.00
2022-08-22T09:39:10.992Z,6748.00
2022-08-22T09:40:17.057Z,6588.00
2022-08-22T09:41:11.933Z,6700.00
2022-08-22T09:42:10.944Z,6536.00
2022-08-22T09:43:11.166Z,6648.00
2022-08-22T09:44:12.031Z,6548.00
2022-08-22T09:45:10.875Z,6828.00
2022-08-22T09:46:10.885Z,6612.00
2022-08-22T09:47:10.904Z,7148.00
2022-08-22T09:48:10.918Z,6976.00
2022-08-22T09:49:11.983Z,7132.00
2022-08-22T09:50:10.817Z,7392.00
2022-08-22T09:51:31.340Z,7352.00
2022-08-22T09:52:14.372Z,7456.00
2022-08-22T09:53:10.810Z,7888.00
2022-08-22T09:54:10.798Z,7924.00
2022-08-22T09:55:11.782Z,8084.00
2022-08-22T09:56:15.744Z,8120.00
2022-08-22T09:57:10.786Z,8268.00
2022-08-22T09:58:11.360Z,8420.00
2022-08-22T09:59:10.838Z,8588.00
2022-08-22T10:00:10.789Z,8808.00
2022-08-22T10:01:10.886Z,9020.00
2022-08-22T10:02:15.455Z,9204.00
2022-08-22T10:03:11.679Z,9324.00
2022-08-22T10:04:10.711Z,9380.00
2022-08-22T10:05:10.676Z,9356.00
2022-08-22T10:06:11.400Z,9284.00
2022-08-22T10:07:12.214Z,9156.00
2022-08-22T10:08:11.311Z,9036.00
2022-08-22T10:09:14.941Z,8936.00
2022-08-22T10:10:10.590Z,8840.00
2022-08-22T10:11:10.582Z,8744.00
2022-08-22T10:12:12.766Z,8668.00
2022-08-22T10:13:10.784Z,8564.00
2022-08-22T10:14:10.527Z,8504.00
2022-08-22T10:15:10.544Z,8240.00
2022-08-22T10:16:10.604Z,7984.00
2022-08-22T10:17:10.633Z,7924.00
2022-08-22T10:18:10.649Z,7764.00
2022-08-22T10:19:10.576Z,7804.00
2022-08-22T10:20:10.475Z,7844.00
2022-08-22T10:21:10.473Z,8092.00
2022-08-22T10:22:10.544Z,8204.00
2022-08-22T10:23:10.440Z,8324.00
2022-08-22T10:24:10.465Z,8480.00
2022-08-22T10:25:10.461Z,8336.00
2022-08-22T10:26:10.436Z,8160.00
2022-08-22T10:27:11.462Z,7884.00
2022-08-22T10:28:10.774Z,7684.00
2022-08-22T10:29:10.359Z,7516.00
2022-08-22T10:30:10.479Z,7372.00
2022-08-22T10:31:11.143Z,7220.00
2022-08-22T10:32:14.438Z,7176.00
2022-08-22T10:33:12.073Z,7104.00
2022-08-22T10:34:10.370Z,7088.00
2022-08-22T10:35:10.313Z,7172.00
2022-08-22T10:36:11.774Z,7376.00
2022-08-22T10:37:10.654Z,7588.00
2022-08-22T10:38:10.947Z,7876.00
2022-08-22T10:39:11.866Z,7936.00
2022-08-22T10:40:10.373Z,8012.00
2022-08-22T10:41:10.234Z,8132.00
2022-08-22T10:42:10.630Z,8332.00
2022-08-22T10:43:10.285Z,8568.00
2022-08-22T10:44:10.869Z,8812.00
2022-08-22T10:45:10.187Z,9128.00
2022-08-22T10:46:12.607Z,9376.00
2022-08-22T10:47:10.204Z,9680.00
2022-08-22T10:48:10.572Z,9952.00
2022-08-22T10:49:10.300Z,10348.00
2022-08-22T10:50:11.553Z,10820.00
2022-08-22T10:51:10.174Z,10876.00
2022-08-22T10:52:32.018Z,11512.00
2022-08-22T10:53:10.218Z,11152.00
2022-08-22T10:54:31.090Z,11076.00
2022-08-22T10:55:10.214Z,10828.00
2022-08-22T10:56:10.137Z,10768.00
2022-08-22T10:57:10.200Z,10628.00
2022-08-22T10:58:12.857Z,10388.00
2022-08-22T10:59:10.047Z,9668.00
2022-08-22T11:00:10.056Z,9280.00
2022-08-22T11:01:37.998Z,8800.00
2022-08-22T11:02:11.018Z,8932.00
2022-08-22T11:03:10.589Z,8628.00
2022-08-22T11:04:12.264Z,8340.00
2022-08-22T11:05:11.198Z,8508.00
2022-08-22T11:06:12.805Z,8608.00
2022-08-22T11:07:09.944Z,8440.00
2022-08-22T11:08:10.038Z,8620.00
2022-08-22T11:09:11.117Z,8144.00
2022-08-22T11:10:09.931Z,7904.00
2022-08-22T11:11:09.929Z,7808.00
2022-08-22T11:12:09.933Z,7704.00
2022-08-22T11:13:09.873Z,7868.00
2022-08-22T11:14:09.890Z,8604.00
2022-08-22T11:15:09.878Z,8132.00
2022-08-22T11:16:09.854Z,8144.00
2022-08-22T11:17:27.951Z,8212.00
2022-08-22T11:18:12.860Z,8344.00
2022-08-22T11:19:15.335Z,8540.00
2022-08-22T11:20:10.810Z,8720.00
2022-08-22T11:21:09.790Z,8884.00
2022-08-22T11:22:10.045Z,8936.00
2022-08-22T11:23:12.396Z,9240.00
2022-08-22T11:24:17.184Z,9424.00
2022-08-22T11:25:12.526Z,9812.00
2022-08-22T11:26:10.122Z,9580.00
2022-08-22T11:27:12.973Z,9692.00
2022-08-22T11:28:09.707Z,10480.00
2022-08-22T11:29:13.761Z,10116.00
2022-08-22T11:30:09.716Z,9324.00
2022-08-22T11:31:09.702Z,9420.00
2022-08-22T11:32:09.768Z,9064.00
2022-08-22T11:33:09.746Z,8648.00
2022-08-22T11:34:09.675Z,9592.00
2022-08-22T11:35:09.652Z,9528.00
2022-08-22T11:36:09.628Z,9376.00
2022-08-22T11:37:11.532Z,9112.00
2022-08-22T11:38:11.093Z,8800.00
2022-08-22T11:39:09.954Z,8320.00
2022-08-22T11:40:11.815Z,7612.00
2022-08-22T11:41:09.553Z,7560.00
2022-08-22T11:42:21.841Z,7280.00
2022-08-22T11:43:21.175Z,6980.00
2022-08-22T11:44:10.301Z,6528.00
2022-08-22T11:45:09.554Z,6644.00
2022-08-22T11:46:09.546Z,6480.00
2022-08-22T11:47:09.589Z,6392.00
2022-08-22T11:48:21.949Z,6284.00
2022-08-22T11:49:09.500Z,6192.00
2022-08-22T11:50:13.323Z,6064.00
2022-08-22T11:51:13.180Z,5960.00
2022-08-22T11:52:09.450Z,5868.00
2022-08-22T11:53:09.455Z,5808.00
2022-08-22T11:54:09.513Z,5148.00
2022-08-22T11:55:09.560Z,5164.00
2022-08-22T11:56:10.441Z,4860.00
2022-08-22T11:57:09.567Z,5132.00
2022-08-22T11:58:09.448Z,4632.00
2022-08-22T11:59:09.371Z,5132.00
2022-08-22T12:00:09.417Z,5192.00
2022-08-22T12:01:13.081Z,5408.00
2022-08-22T12:02:12.193Z,5596.00
2022-08-22T12:03:09.368Z,5144.00
2022-08-22T12:04:09.859Z,5516.00
2022-08-22T12:05:09.311Z,5512.00
2022-08-22T12:06:09.318Z,5432.00
2022-08-22T12:07:09.317Z,5628.00
2022-08-22T12:08:11.329Z,5620.00
2022-08-22T12:09:09.222Z,5588.00
2022-08-22T12:10:13.438Z,5096.00
2022-08-22T12:11:09.353Z,4712.00
2022-08-22T12:12:09.322Z,4976.00
2022-08-22T12:13:09.299Z,5348.00
2022-08-22T12:14:09.245Z,5616.00
2022-08-22T12:15:09.325Z,5600.00
2022-08-22T12:16:09.176Z,5884.00
2022-08-22T12:17:09.173Z,5940.00
2022-08-22T12:18:09.197Z,5976.00
2022-08-22T12:19:09.144Z,6000.00